Time;durP1;ratioP1;P1;durP2;ratioP2;P2;SDS_P1;SDS_P2;PMS_P1;PMS_P2;Temp;Humidity;BMP_temperature;BMP_pressure;BME280_temperature;BME280_humidity;BME280_pressure;Samples;Min_cycle;Max_cycle;Signal;HPM_P1;HPM_P2
2022/03/01 00:01:47;;;;;;;19.95;12.07;;;;;;;9.04;96.75;101142.80;1733628;82;21075;-61
2022/03/01 00:04:14;;;;;;;19.20;11.60;;;;;;;9.14;96.20;101142.23;1733307;82;22489;-61
2022/03/01 00:06:41;;;;;;;18.92;12.00;;;;;;;9.16;95.51;101137.69;1728948;82;21103;-64
2022/03/01 00:09:08;;;;;;;19.57;11.95;;;;;;;8.66;99.20;101138.27;1730455;80;21131;-62
2022/03/01 00:11:36;;;;;;;20.95;12.40;;;;;;;8.50;100.00;101142.34;1732403;82;20937;-71
2022/03/01 00:14:03;;;;;;;20.52;11.73;;;;;;;8.86;100.00;101137.12;1727014;82;21022;-63
2022/03/01 00:16:32;;;;;;;19.35;11.40;;;;;;;8.45;100.00;101144.58;1732535;80;20969;-61
2022/03/01 00:19:00;;;;;;;20.32;11.90;;;;;;;8.31;100.00;101148.13;1728139;80;21063;-62
2022/03/01 00:21:28;;;;;;;17.55;9.50;;;;;;;8.42;100.00;101148.77;1735594;82;21134;-71
2022/03/01 00:23:57;;;;;;;16.67;9.65;;;;;;;8.58;100.00;101136.89;1732560;82;21676;-61
2022/03/01 00:26:24;;;;;;;15.10;9.10;;;;;;;8.97;100.00;101142.09;1722926;82;21518;-62
2022/03/01 00:28:52;;;;;;;17.00;9.05;;;;;;;8.71;100.00;101145.97;1733652;82;21010;-60
2022/03/01 00:31:19;;;;;;;16.97;9.80;;;;;;;9.00;100.00;101141.80;1733376;81;20914;-63
2022/03/01 00:33:46;;;;;;;15.78;9.78;;;;;;;9.03;98.20;101151.58;1734684;82;21148;-61
2022/03/01 00:36:14;;;;;;;15.05;9.40;;;;;;;9.04;97.26;101154.50;1732456;82;21042;-64
2022/03/01 00:38:41;;;;;;;16.02;8.90;;;;;;;8.89;98.67;101154.22;1728080;82;21069;-63
2022/03/01 00:41:10;;;;;;;18.02;10.50;;;;;;;8.80;100.00;101146.03;1729617;82;21026;-62
2022/03/01 00:43:38;;;;;;;16.85;10.43;;;;;;;8.86;100.00;101143.62;1730622;82;20938;-63
2022/03/01 00:46:05;;;;;;;19.37;10.95;;;;;;;8.55;100.00;101143.68;1732304;82;21251;-67
2022/03/01 00:48:33;;;;;;;20.17;11.20;;;;;;;8.75;100.00;101142.55;1729733;82;20995;-62
2022/03/01 00:51:00;;;;;;;15.03;9.33;;;;;;;8.81;100.00;101145.06;1732627;81;21014;-61
2022/03/01 00:53:27;;;;;;;15.30;10.13;;;;;;;8.82;100.00;101148.80;1730459;82;21579;-62
2022/03/01 00:55:54;;;;;;;17.30;9.08;;;;;;;8.79;100.00;101145.22;1730998;82;21103;-62
2022/03/01 00:58:22;;;;;;;17.52;10.43;;;;;;;9.06;100.00;101139.58;1730057;82;21221;-72
2022/03/01 01:00:49;;;;;;;16.77;10.63;;;;;;;9.09;100.00;101132.75;1731661;82;21004;-61
2022/03/01 01:03:16;;;;;;;17.15;10.00;;;;;;;9.06;100.00;101139.09;1730090;82;21009;-66
2022/03/01 01:05:43;;;;;;;19.10;10.88;;;;;;;9.21;99.11;101141.97;1703915;82;21029;-61
2022/03/01 01:08:11;;;;;;;17.10;10.15;;;;;;;9.07;100.00;101138.61;1703812;82;21606;-61
2022/03/01 01:10:38;;;;;;;17.42;9.83;;;;;;;9.01;100.00;101140.83;1707338;82;21518;-61
2022/03/01 01:13:07;;;;;;;15.23;9.68;;;;;;;9.18;99.37;101138.36;1696811;82;21107;-68
2022/03/01 01:15:34;;;;;;;16.73;10.20;;;;;;;9.03;100.00;101136.80;1702458;82;21074;-60
2022/03/01 01:18:01;;;;;;;17.48;10.40;;;;;;;9.03;100.00;101143.30;1698318;82;22487;-64
2022/03/01 01:20:28;;;;;;;15.78;10.30;;;;;;;9.02;100.00;101142.97;1708103;82;21008;-61
2022/03/01 01:22:57;;;;;;;17.75;10.28;;;;;;;9.03;100.00;101146.38;1699994;82;21114;-61
2022/03/01 01:25:25;;;;;;;19.35;10.58;;;;;;;9.09;100.00;101144.45;1706481;82;20976;-67
2022/03/01 01:27:56;;;;;;;18.65;10.80;;;;;;;9.07;100.00;101152.42;1704007;82;21143;-62
2022/03/01 01:30:26;;;;;;;16.57;10.72;;;;;;;8.87;100.00;101156.98;1706931;82;21033;-62
2022/03/01 01:32:53;;;;;;;17.75;10.38;;;;;;;8.91;100.00;101154.42;1706459;82;20999;-63
2022/03/01 01:35:22;;;;;;;17.92;10.80;;;;;;;8.92;100.00;101159.13;1709018;82;21550;-73
2022/03/01 01:37:50;;;;;;;18.20;10.15;;;;;;;8.90;100.00;101162.34;1703254;82;21123;-72
2022/03/01 01:40:20;;;;;;;17.75;9.75;;;;;;;8.86;100.00;101164.42;1705259;82;20956;-62
2022/03/01 01:42:47;;;;;;;18.32;10.72;;;;;;;8.89;100.00;101160.23;1697778;82;20990;-61
2022/03/01 01:45:14;;;;;;;16.65;9.65;;;;;;;8.84;100.00;101158.58;1708521;82;21033;-70
2022/03/01 01:47:44;;;;;;;18.42;10.98;;;;;;;8.86;100.00;101160.53;1706156;82;21201;-62
2022/03/01 01:50:11;;;;;;;15.95;9.73;;;;;;;8.93;100.00;101158.97;1702205;82;21067;-63
2022/03/01 01:52:39;;;;;;;18.75;10.23;;;;;;;8.90;100.00;101160.59;1707257;82;21126;-64
2022/03/01 01:55:06;;;;;;;18.77;10.72;;;;;;;8.71;100.00;101160.72;1705378;82;21462;-69
2022/03/01 01:57:33;;;;;;;21.27;11.68;;;;;;;8.75;100.00;101168.55;1704181;82;21577;-61
2022/03/01 02:00:03;;;;;;;18.23;9.98;;;;;;;8.90;100.00;101159.75;1695810;82;21160;-74
2022/03/01 02:02:32;;;;;;;16.20;9.30;;;;;;;8.85;100.00;101164.10;1702858;82;21087;-61
2022/03/01 02:05:02;;;;;;;18.50;10.15;;;;;;;8.74;100.00;101165.63;1643727;85;21192;-62
2022/03/01 02:07:29;;;;;;;17.05;9.83;;;;;;;8.84;100.00;101159.06;1689211;82;21572;-65
2022/03/01 02:09:57;;;;;;;15.90;9.38;;;;;;;8.90;100.00;101161.89;1694842;83;21548;-73
2022/03/01 02:12:28;;;;;;;18.15;10.88;;;;;;;9.03;100.00;101162.80;1697852;83;21219;-62
2022/03/01 02:14:55;;;;;;;18.17;9.70;;;;;;;9.04;100.00;101167.02;1692730;83;20975;-65
2022/03/01 02:17:24;;;;;;;17.85;10.20;;;;;;;8.92;100.00;101172.94;1690355;83;21090;-64
2022/03/01 02:19:51;;;;;;;19.85;10.58;;;;;;;8.93;100.00;101182.37;1687012;83;21563;-62
2022/03/01 02:22:19;;;;;;;18.05;10.55;;;;;;;9.01;100.00;101178.53;1686938;84;21031;-63
2022/03/01 02:24:46;;;;;;;17.45;10.20;;;;;;;9.06;100.00;101173.39;1687537;83;21145;-63
2022/03/01 02:27:14;;;;;;;18.45;9.65;;;;;;;8.89;100.00;101177.62;1686387;83;21037;-72
2022/03/01 02:29:41;;;;;;;14.73;9.48;;;;;;;9.32;100.00;101164.29;1686772;83;21114;-63
2022/03/01 02:32:09;;;;;;;18.52;10.63;;;;;;;10.03;91.13;101164.52;1687274;83;21034;-62
2022/03/01 02:34:37;;;;;;;15.80;9.88;;;;;;;10.32;86.58;101165.47;1688315;84;21012;-62
2022/03/01 02:37:04;;;;;;;17.27;9.48;;;;;;;9.03;99.14;101164.59;1687056;83;21168;-71
2022/03/01 02:39:32;;;;;;;17.15;9.98;;;;;;;8.86;100.00;101170.12;1686543;84;21042;-63
2022/03/01 02:41:59;;;;;;;20.50;10.28;;;;;;;8.89;100.00;101171.12;1686592;84;21094;-62
2022/03/01 02:44:26;;;;;;;19.40;10.85;;;;;;;8.91;100.00;101173.11;1687592;84;21028;-62
2022/03/01 02:46:54;;;;;;;19.07;10.58;;;;;;;8.93;100.00;101168.55;1686187;84;21113;-61
2022/03/01 02:49:21;;;;;;;16.25;9.50;;;;;;;9.03;100.00;101164.09;1686698;84;21160;-72
2022/03/01 02:51:48;;;;;;;16.15;8.53;;;;;;;9.08;100.00;101161.03;1687580;83;21085;-63
2022/03/01 02:54:16;;;;;;;14.83;9.88;;;;;;;9.13;100.00;101163.99;1686537;84;21086;-60
2022/03/01 02:56:44;;;;;;;16.57;10.28;;;;;;;9.16;100.00;101162.39;1687511;83;20924;-61
2022/03/01 02:59:11;;;;;;;18.12;10.15;;;;;;;9.15;100.00;101164.19;1687347;84;21063;-66
2022/03/01 03:01:39;;;;;;;15.93;9.63;;;;;;;9.28;100.00;101165.11;1685637;83;21131;-67
2022/03/01 03:04:06;;;;;;;16.30;10.40;;;;;;;9.18;100.00;101163.89;1685128;83;21134;-61
2022/03/01 03:06:34;;;;;;;17.73;10.20;;;;;;;8.95;100.00;101173.95;1697054;84;20971;-62
2022/03/01 03:09:01;;;;;;;17.00;10.13;;;;;;;8.94;100.00;101171.02;1743249;80;22168;-68
2022/03/01 03:11:30;;;;;;;18.25;10.40;;;;;;;9.08;100.00;101177.95;1742295;82;21074;-62
2022/03/01 03:13:57;;;;;;;18.77;10.65;;;;;;;9.13;100.00;101179.14;1735731;82;21097;-61
2022/03/01 03:16:27;;;;;;;18.48;10.90;;;;;;;9.09;100.00;101174.37;1734410;81;21109;-61
2022/03/01 03:18:56;;;;;;;17.42;10.85;;;;;;;9.10;100.00;101173.42;1732996;82;21057;-70
2022/03/01 03:21:23;;;;;;;16.05;10.48;;;;;;;9.06;100.00;101173.39;1733857;80;21569;-62
2022/03/01 03:23:51;;;;;;;19.73;11.80;;;;;;;9.12;100.00;101167.56;1733976;82;21061;-62
2022/03/01 03:26:18;;;;;;;18.80;11.25;;;;;;;9.08;100.00;101166.24;1733791;82;21156;-62
2022/03/01 03:28:46;;;;;;;16.32;10.25;;;;;;;8.96;100.00;101170.38;1733722;80;21562;-68
2022/03/01 03:31:13;;;;;;;15.90;9.25;;;;;;;9.05;100.00;101163.45;1731347;82;21013;-62
2022/03/01 03:33:41;;;;;;;20.62;11.38;;;;;;;9.19;100.00;101156.41;1730686;82;21047;-63
2022/03/01 03:36:08;;;;;;;21.77;11.68;;;;;;;9.03;100.00;101158.08;1733822;82;21090;-63
2022/03/01 03:38:36;;;;;;;21.10;12.70;;;;;;;9.15;100.00;101157.69;1733875;82;22310;-63
2022/03/01 03:41:04;;;;;;;19.77;11.85;;;;;;;9.09;100.00;101143.16;1733193;80;21118;-62
2022/03/01 03:43:32;;;;;;;19.07;11.38;;;;;;;9.19;100.00;101143.89;1734908;82;20953;-62
2022/03/01 03:46:00;;;;;;;18.75;11.83;;;;;;;9.15;100.00;101142.56;1733382;82;21014;-62
2022/03/01 03:48:27;;;;;;;18.98;12.58;;;;;;;9.19;100.00;101137.39;1731593;82;21024;-71
2022/03/01 03:50:54;;;;;;;18.70;11.33;;;;;;;9.19;100.00;101136.09;1734076;82;21119;-62
2022/03/01 03:53:21;;;;;;;21.48;12.70;;;;;;;9.19;100.00;101141.29;1733749;80;21117;-63
2022/03/01 03:55:49;;;;;;;21.87;13.08;;;;;;;9.10;100.00;101139.61;1735480;82;21583;-63
2022/03/01 03:58:16;;;;;;;21.50;11.90;;;;;;;9.24;100.00;101142.94;1733578;82;21051;-61
2022/03/01 04:00:43;;;;;;;21.07;12.95;;;;;;;9.41;99.86;101138.67;1736092;80;21591;-62
2022/03/01 04:03:12;;;;;;;23.60;14.33;;;;;;;9.28;100.00;101126.54;1803251;77;21327;-69
2022/03/01 04:05:39;;;;;;;22.40;13.75;;;;;;;9.22;100.00;101130.09;1816884;76;21093;-63
2022/03/01 04:08:08;;;;;;;19.40;12.85;;;;;;;9.22;100.00;101132.70;1815782;77;21886;-62
2022/03/01 04:10:35;;;;;;;22.73;12.80;;;;;;;9.22;100.00;101130.58;1818228;77;21025;-64
2022/03/01 04:13:02;;;;;;;21.68;13.53;;;;;;;9.46;97.14;101131.20;1781620;78;21863;-68
2022/03/01 04:15:31;;;;;;;18.20;12.25;;;;;;;9.34;98.08;101136.34;1821299;77;21134;-63
2022/03/01 04:17:59;;;;;;;19.92;12.55;;;;;;;9.33;97.41;101140.73;1823898;77;21901;-63
2022/03/01 04:20:27;;;;;;;23.22;12.82;;;;;;;9.17;99.43;101142.75;1826796;77;21579;-63
2022/03/01 04:22:54;;;;;;;21.60;13.90;;;;;;;9.01;100.00;101148.63;1812036;77;21060;-62
2022/03/01 04:25:21;;;;;;;22.27;13.15;;;;;;;8.96;100.00;101141.77;1819908;77;21012;-62
2022/03/01 04:27:49;;;;;;;20.80;13.50;;;;;;;8.99;100.00;101145.86;1821492;77;21145;-63
2022/03/01 04:30:17;;;;;;;20.40;12.88;;;;;;;8.86;100.00;101139.73;1816955;77;21026;-71
2022/03/01 04:32:45;;;;;;;20.15;13.43;;;;;;;8.73;100.00;101138.01;1818348;77;22417;-62
2022/03/01 04:35:12;;;;;;;18.57;12.78;;;;;;;8.72;100.00;101141.58;1820559;77;20943;-66
2022/03/01 04:37:42;;;;;;;23.27;14.40;;;;;;;8.73;100.00;101137.52;1813485;76;21035;-63
2022/03/01 04:40:10;;;;;;;19.70;13.53;;;;;;;8.76;100.00;101140.31;1825595;77;21146;-67
2022/03/01 04:42:38;;;;;;;19.00;13.13;;;;;;;8.85;100.00;101143.30;1775836;78;20963;-63
2022/03/01 04:45:07;;;;;;;19.32;11.50;;;;;;;8.82;100.00;101140.19;1812519;77;20941;-63
2022/03/01 04:47:34;;;;;;;18.85;12.88;;;;;;;8.77;100.00;101151.04;1823831;77;20976;-63
2022/03/01 04:50:05;;;;;;;22.00;13.93;;;;;;;8.81;100.00;101145.06;1816009;77;21027;-61
2022/03/01 04:52:32;;;;;;;19.65;11.93;;;;;;;8.99;100.00;101145.37;1821686;77;21379;-61
2022/03/01 04:55:00;;;;;;;20.70;13.58;;;;;;;9.17;98.65;101145.84;1827642;77;21608;-63
2022/03/01 04:57:27;;;;;;;19.62;12.85;;;;;;;9.19;97.79;101155.59;1828218;77;20970;-66
2022/03/01 04:59:54;;;;;;;18.15;12.37;;;;;;;9.09;97.53;101154.41;1818231;77;20896;-66
2022/03/01 05:02:21;;;;;;;22.52;12.73;;;;;;;9.16;97.23;101161.09;1815081;77;21029;-65
2022/03/01 05:04:48;;;;;;;18.50;12.15;;;;;;;9.27;95.29;101153.05;1770564;79;21138;-62
2022/03/01 05:07:18;;;;;;;21.93;14.00;;;;;;;9.16;95.77;101150.69;1768309;79;21098;-68
2022/03/01 05:09:45;;;;;;;24.98;12.47;;;;;;;9.07;96.66;101145.92;1745547;80;21001;-65
2022/03/01 05:12:12;;;;;;;19.77;12.37;;;;;;;9.04;98.25;101139.72;1814377;77;21057;-62
2022/03/01 05:14:40;;;;;;;17.37;11.85;;;;;;;9.10;97.50;101143.02;1767784;79;21073;-64
2022/03/01 05:17:07;;;;;;;18.98;12.40;;;;;;;9.09;95.59;101132.30;1770281;79;21143;-61
2022/03/01 05:19:35;;;;;;;20.43;13.13;;;;;;;9.12;96.25;101137.17;1774344;79;21029;-63
2022/03/01 05:22:03;;;;;;;16.97;12.40;;;;;;;9.01;96.68;101133.02;1763522;79;21132;-66
2022/03/01 05:24:31;;;;;;;18.85;11.97;;;;;;;9.01;97.16;101139.52;1752976;80;21285;-68
2022/03/01 05:26:58;;;;;;;19.37;12.30;;;;;;;9.11;95.55;101131.64;1748669;81;21150;-61
2022/03/01 05:29:25;;;;;;;18.52;11.88;;;;;;;9.12;95.12;101141.56;1773789;79;21109;-62
2022/03/01 05:31:52;;;;;;;20.43;12.98;;;;;;;9.19;95.78;101129.09;1767135;79;21003;-66
2022/03/01 05:34:19;;;;;;;19.75;12.50;;;;;;;9.15;95.11;101143.38;1745959;80;21529;-69
2022/03/01 05:36:47;;;;;;;19.42;12.98;;;;;;;9.05;96.32;101137.93;1785673;79;21057;-60
2022/03/01 05:39:14;;;;;;;20.27;12.50;;;;;;;8.87;98.30;101133.59;1766873;79;21477;-61
2022/03/01 05:41:41;;;;;;;19.40;12.80;;;;;;;9.02;96.10;101128.66;1738667;80;21161;-61
2022/03/01 05:44:08;;;;;;;16.55;11.97;;;;;;;9.03;94.89;101135.48;1811388;79;20978;-70
2022/03/01 05:46:35;;;;;;;18.23;10.75;;;;;;;9.05;94.98;101134.84;1807729;77;21041;-61
2022/03/01 05:49:03;;;;;;;20.30;12.70;;;;;;;9.22;93.41;101139.20;1761758;79;21089;-61
2022/03/01 05:51:32;;;;;;;22.50;12.80;;;;;;;9.24;93.09;101148.14;1779117;79;21513;-62
2022/03/01 05:54:00;;;;;;;18.50;12.18;;;;;;;9.30;92.29;101150.14;1767885;79;48004;-61
2022/03/01 05:56:28;;;;;;;18.50;11.73;;;;;;;9.34;90.78;101148.87;1821796;77;21017;-73
2022/03/01 05:58:56;;;;;;;19.23;12.50;;;;;;;9.15;92.87;101151.67;1755410;79;21037;-60
2022/03/01 06:01:23;;;;;;;18.62;12.23;;;;;;;9.18;93.21;101145.68;1784011;79;21008;-59
2022/03/01 06:03:50;;;;;;;20.97;12.75;;;;;;;9.01;94.56;101158.22;1827349;77;21047;-59
2022/03/01 06:06:19;;;;;;;21.97;13.65;;;;;;;9.02;93.54;101159.88;1825712;77;21159;-60
2022/03/01 06:08:47;;;;;;;22.07;13.43;;;;;;;9.06;93.35;101161.69;1832754;77;21077;-59
2022/03/01 06:11:15;;;;;;;19.25;12.82;;;;;;;9.08;92.74;101156.65;1832106;77;20976;-65
2022/03/01 06:13:43;;;;;;;20.17;13.18;;;;;;;9.11;91.92;101154.23;1817656;77;20931;-61
2022/03/01 06:16:12;;;;;;;19.50;12.63;;;;;;;9.16;90.73;101158.49;1820453;77;21054;-59
2022/03/01 06:18:39;;;;;;;18.92;12.43;;;;;;;9.31;89.03;101158.77;1820618;77;21417;-68
2022/03/01 06:21:07;;;;;;;18.37;12.07;;;;;;;9.12;88.88;101159.28;1776104;78;20990;-60
2022/03/01 06:23:34;;;;;;;20.97;13.68;;;;;;;9.40;87.83;101155.27;1828066;77;21042;-62
2022/03/01 06:26:03;;;;;;;21.93;12.98;;;;;;;9.39;86.66;101160.11;1823509;77;21549;-66
2022/03/01 06:28:30;;;;;;;20.12;13.40;;;;;;;9.31;87.58;101156.97;1822479;77;20990;-66
2022/03/01 06:30:57;;;;;;;20.90;13.38;;;;;;;9.40;85.72;101153.47;1804102;77;21548;-62
2022/03/01 06:33:25;;;;;;;21.33;14.20;;;;;;;9.26;87.54;101160.04;1826752;77;22212;-62
2022/03/01 06:35:53;;;;;;;18.92;12.55;;;;;;;9.21;88.71;101162.78;1839877;77;21068;-64
2022/03/01 06:38:20;;;;;;;18.75;11.80;;;;;;;9.14;87.20;101156.55;1827724;77;21039;-68
2022/03/01 06:40:52;;;;;;;19.40;12.82;;;;;;;9.08;88.67;101159.25;1780280;78;21046;-63
2022/03/01 06:43:19;;;;;;;21.17;13.30;;;;;;;9.20;88.80;101157.22;1824595;77;21911;-64
2022/03/01 06:45:49;;;;;;;19.10;12.37;;;;;;;9.15;88.74;101158.98;1823750;77;21009;-60
2022/03/01 06:48:16;;;;;;;19.77;12.95;;;;;;;9.14;88.09;101160.45;1779417;78;21058;-63
2022/03/01 06:50:44;;;;;;;18.92;12.03;;;;;;;9.23;88.08;101156.92;1820737;77;21084;-70
2022/03/01 06:53:13;;;;;;;20.20;13.68;;;;;;;9.33;87.21;101153.75;1823284;77;21556;-63
2022/03/01 06:55:42;;;;;;;19.07;12.40;;;;;;;9.33;86.02;101153.75;1781960;78;21125;-62
2022/03/01 06:58:10;;;;;;;17.17;10.98;;;;;;;9.32;85.74;101158.63;1819680;77;20915;-70
2022/03/01 07:00:37;;;;;;;19.48;12.90;;;;;;;9.43;84.60;101154.94;1795607;77;21082;-62
2022/03/01 07:03:04;;;;;;;19.10;13.05;;;;;;;9.65;82.18;101148.39;1767317;79;21015;-69
2022/03/01 07:05:32;;;;;;;19.05;12.23;;;;;;;9.56;82.70;101155.84;1765372;78;21093;-61
2022/03/01 07:07:59;;;;;;;17.87;12.23;;;;;;;9.63;81.50;101152.47;1786118;79;21529;-61
2022/03/01 07:10:28;;;;;;;19.42;13.50;;;;;;;9.68;81.09;101151.51;1785626;80;21516;-72
2022/03/01 07:12:56;;;;;;;19.02;12.10;;;;;;;9.67;81.24;101155.58;1792533;78;21159;-61
2022/03/01 07:15:24;;;;;;;19.07;11.75;;;;;;;9.73;79.74;101157.55;1790324;77;20999;-61
2022/03/01 07:17:53;;;;;;;17.37;11.20;;;;;;;9.77;78.00;101147.64;1772629;79;21552;-61
2022/03/01 07:20:20;;;;;;;20.08;12.95;;;;;;;9.72;77.29;101156.73;1775627;79;21138;-66
2022/03/01 07:22:47;;;;;;;19.40;12.00;;;;;;;9.69;78.60;101150.53;1802558;77;21009;-62
2022/03/01 07:25:15;;;;;;;16.05;11.25;;;;;;;9.69;77.85;101154.92;1792265;79;20885;-65
2022/03/01 07:27:49;;;;;;;16.97;11.28;;;;;;;9.70;77.46;101154.78;1796075;77;21061;-62
2022/03/01 07:30:18;;;;;;;19.45;12.47;;;;;;;9.62;78.43;101162.55;1751993;79;21587;-71
2022/03/01 07:32:48;;;;;;;17.95;11.60;;;;;;;9.61;77.86;101154.88;1719644;81;21069;-63
2022/03/01 07:35:15;;;;;;;16.25;11.30;;;;;;;9.70;77.02;101156.58;1730536;80;21065;-63
2022/03/01 07:37:42;;;;;;;17.92;11.83;;;;;;;9.83;76.75;101160.05;1746814;80;20960;-64
2022/03/01 07:40:11;;;;;;;17.90;12.47;;;;;;;9.83;76.65;101156.95;1745984;80;21502;-62
2022/03/01 07:42:39;;;;;;;17.12;11.20;;;;;;;9.71;78.93;101160.80;1747493;80;21023;-64
2022/03/01 07:45:08;;;;;;;17.55;11.20;;;;;;;9.86;77.22;101158.44;1755735;80;21079;-67
2022/03/01 07:47:35;;;;;;;17.67;11.85;;;;;;;10.07;73.90;101156.71;1751907;80;21837;-65
2022/03/01 07:50:04;;;;;;;18.95;12.25;;;;;;;9.97;73.98;101160.77;1755641;80;21024;-68
2022/03/01 07:52:31;;;;;;;16.95;10.70;;;;;;;10.01;73.30;101159.48;1774365;79;20966;-62
2022/03/01 07:54:58;;;;;;;18.77;11.97;;;;;;;9.93;74.75;101162.05;1771156;79;21364;-64
2022/03/01 07:57:26;;;;;;;16.70;11.00;;;;;;;10.06;72.98;101149.88;1763068;79;21809;-66
2022/03/01 07:59:53;;;;;;;17.50;11.65;;;;;;;10.06;72.73;101151.99;1775209;79;21117;-61
2022/03/01 08:02:21;;;;;;;16.45;10.78;;;;;;;10.05;72.76;101147.77;1779044;78;21054;-72
2022/03/01 08:04:50;;;;;;;15.40;10.82;;;;;;;10.18;71.68;101152.03;1785637;78;21521;-64
2022/03/01 08:07:17;;;;;;;16.70;11.85;;;;;;;10.37;69.36;101146.25;1835305;77;20986;-64
2022/03/01 08:09:45;;;;;;;17.25;11.33;;;;;;;10.23;69.44;101142.45;1802728;78;21169;-63
2022/03/01 08:12:14;;;;;;;16.85;10.90;;;;;;;10.25;69.21;101141.83;1803876;78;21567;-60
2022/03/01 08:14:43;;;;;;;17.20;11.80;;;;;;;10.39;68.43;101133.39;1766787;78;20953;-66
2022/03/01 08:17:12;;;;;;;17.60;11.90;;;;;;;10.40;66.99;101135.51;1793870;78;20994;-60
2022/03/01 08:19:41;;;;;;;16.32;11.63;;;;;;;10.41;67.75;101137.95;1799564;78;20979;-64
2022/03/01 08:22:09;;;;;;;15.72;10.70;;;;;;;10.48;67.46;101134.22;1775169;78;22083;-63
2022/03/01 08:24:36;;;;;;;18.77;12.13;;;;;;;10.51;67.09;101130.48;1754820;78;21056;-73
2022/03/01 08:27:04;;;;;;;18.70;12.00;;;;;;;10.65;65.63;101132.46;1811126;77;20895;-68
2022/03/01 08:29:34;;;;;;;17.70;11.60;;;;;;;10.66;65.45;101135.38;1779406;78;20919;-62
2022/03/01 08:32:03;;;;;;;18.00;11.50;;;;;;;10.79;64.42;101137.01;1777627;78;20991;-65
2022/03/01 08:34:32;;;;;;;19.07;11.05;;;;;;;10.88;63.43;101137.84;1816710;77;21157;-68
2022/03/01 08:37:03;;;;;;;;;;;;;;;10.71;63.55;101143.03;1790496;78;21047;-63
2022/03/01 08:39:30;;;;;;;17.45;10.70;;;;;;;10.64;63.79;101143.35;1843165;77;20258;-63
2022/03/01 08:41:59;;;;;;;14.35;9.03;;;;;;;10.69;64.21;101148.92;1829407;77;21106;-62
2022/03/01 08:44:26;;;;;;;17.85;11.38;;;;;;;10.84;63.48;101133.94;1794545;78;21146;-61
2022/03/01 08:46:54;;;;;;;17.02;11.22;;;;;;;10.78;63.12;101146.31;1795170;78;21089;-67
2022/03/01 08:49:23;;;;;;;14.43;9.18;;;;;;;11.03;62.26;101136.70;1751362;80;21005;-67
2022/03/01 08:51:50;;;;;;;18.35;11.78;;;;;;;11.17;61.11;101145.98;1815771;77;21077;-63
2022/03/01 08:54:17;;;;;;;16.93;11.70;;;;;;;11.21;60.81;101149.05;1823686;76;21056;-74
2022/03/01 08:56:45;;;;;;;17.17;10.00;;;;;;;11.23;61.21;101141.89;1814085;77;20982;-65
2022/03/01 08:59:12;;;;;;;14.65;8.83;;;;;;;11.31;61.76;101143.17;1805583;77;21240;-64
2022/03/01 09:01:42;;;;;;;18.62;10.48;;;;;;;11.04;62.52;101144.84;1766618;78;21530;-63
2022/03/01 09:04:08;;;;;;;16.48;11.08;;;;;;;10.93;63.82;101161.14;1755357;77;20947;-63
2022/03/01 09:06:35;;;;;;;14.40;10.00;;;;;;;11.12;63.58;101146.14;1756203;79;21067;-73
2022/03/01 09:09:04;;;;;;;12.07;8.70;;;;;;;11.22;62.31;101144.18;1765900;79;21231;-66
2022/03/01 09:11:31;;;;;;;14.63;9.55;;;;;;;11.20;62.20;101140.41;1758183;79;21122;-65
2022/03/01 09:13:59;;;;;;;15.70;10.25;;;;;;;11.29;62.88;101137.33;1764284;79;20944;-64
2022/03/01 09:16:29;;;;;;;14.80;8.55;;;;;;;11.47;61.58;101134.98;1759585;79;21091;-63
2022/03/01 09:18:57;;;;;;;13.30;8.78;;;;;;;11.68;60.53;101128.73;1783076;79;21363;-62
2022/03/01 09:21:24;;;;;;;14.40;10.63;;;;;;;11.27;62.31;101138.45;1760745;79;21067;-64
2022/03/01 09:23:55;;;;;;;14.13;9.38;;;;;;;11.37;61.08;101133.38;1763481;79;21046;-62
2022/03/01 09:26:23;;;;;;;11.80;8.10;;;;;;;11.27;60.51;101134.05;1768758;79;21006;-67
2022/03/01 09:28:50;;;;;;;13.70;8.80;;;;;;;11.07;60.27;101132.78;1773491;79;21568;-64
2022/03/01 09:31:17;;;;;;;15.95;10.68;;;;;;;10.76;62.89;101136.52;1760988;79;22164;-64
2022/03/01 09:33:46;;;;;;;12.60;8.30;;;;;;;10.75;64.86;101144.02;1770090;79;21038;-62
2022/03/01 09:36:14;;;;;;;11.63;7.87;;;;;;;11.07;65.58;101134.89;1767448;79;21162;-64
2022/03/01 09:38:41;;;;;;;12.35;8.35;;;;;;;11.24;62.58;101136.98;1777843;79;20911;-66
2022/03/01 09:41:08;;;;;;;13.40;9.80;;;;;;;11.37;61.59;101129.97;1771509;79;21250;-67
2022/03/01 09:43:37;;;;;;;11.85;7.87;;;;;;;11.34;61.48;101128.49;1767903;79;21874;-62
2022/03/01 09:46:08;;;;;;;11.22;7.40;;;;;;;11.39;61.29;101120.97;1754692;79;21113;-68
2022/03/01 09:48:38;;;;;;;12.00;8.53;;;;;;;11.24;61.92;101123.12;1747373;79;21085;-69
2022/03/01 09:51:08;;;;;;;12.47;8.90;;;;;;;11.24;61.53;101129.16;1772362;79;21074;-65
2022/03/01 09:53:36;;;;;;;11.65;7.83;;;;;;;11.20;60.82;101123.94;1771131;79;21110;-63
2022/03/01 09:56:04;;;;;;;11.57;7.55;;;;;;;11.16;60.86;101117.43;1779540;79;20997;-64
2022/03/01 09:58:32;;;;;;;12.93;8.35;;;;;;;10.89;61.74;101120.72;1788367;79;21006;-63
2022/03/01 10:00:59;;;;;;;14.28;8.68;;;;;;;11.12;61.11;101116.13;1777012;79;21277;-64
2022/03/01 10:03:28;;;;;;;11.08;7.58;;;;;;;11.25;60.05;101112.54;1792902;77;21055;-64
2022/03/01 10:06:10;;;;;;;11.38;7.53;;;;;;;11.22;59.48;101103.73;1770783;79;21030;-68
2022/03/01 10:08:37;;;;;;;13.78;7.90;;;;;;;11.15;61.54;101112.70;1742508;80;21564;-65
2022/03/01 10:11:06;;;;;;;12.13;8.40;;;;;;;11.46;59.84;101104.15;1811168;77;21098;-68
2022/03/01 10:13:38;;;;;;;11.45;7.28;;;;;;;11.58;59.11;101104.59;1821043;77;21143;-65
2022/03/01 10:16:15;;;;;;;11.38;7.25;;;;;;;11.64;57.96;101105.24;1812074;77;20995;-66
2022/03/01 10:18:52;;;;;;;10.63;7.67;;;;;;;11.43;57.56;101102.67;1802644;77;20900;-68
2022/03/01 10:21:23;;;;;;;12.63;8.28;;;;;;;11.44;57.47;101103.02;1777738;77;21694;-67
2022/03/01 10:23:53;;;;;;;11.40;6.65;;;;;;;11.33;58.08;101103.88;1807080;77;21045;-65
2022/03/01 10:26:28;;;;;;;10.00;6.87;;;;;;;11.57;57.74;101095.14;1812301;77;21121;-70
2022/03/01 10:28:56;;;;;;;10.63;6.80;;;;;;;11.58;57.33;101089.73;1802238;77;22519;-63
2022/03/01 10:31:28;;;;;;;10.28;7.42;;;;;;;11.62;56.30;101089.72;1782417;77;21074;-74
2022/03/01 10:41:45;;;;;;;12.23;8.58;;;;;;;12.20;55.26;101092.92;1811980;77;21963;-77
2022/03/01 10:44:18;;;;;;;10.38;7.10;;;;;;;12.22;54.99;101096.66;1797796;77;21474;-63
2022/03/01 10:46:52;;;;;;;9.30;6.00;;;;;;;12.32;54.92;101097.25;1813740;77;20979;-62
2022/03/01 10:49:25;;;;;;;13.13;7.60;;;;;;;12.36;54.50;101089.38;1817740;77;21002;-62
2022/03/01 10:52:08;;;;;;;10.65;7.20;;;;;;;12.58;54.64;101080.71;1809187;77;21023;-64
2022/03/01 10:54:40;;;;;;;12.58;7.75;;;;;;;12.85;53.62;101068.87;1801693;77;21129;-66
2022/03/01 10:57:22;;;;;;;12.40;6.60;;;;;;;13.05;53.32;101060.50;1824193;77;20956;-64
2022/03/01 10:59:49;;;;;;;9.48;6.30;;;;;;;13.01;53.17;101061.84;1781062;77;21070;-63
2022/03/01 11:02:19;;;;;;;11.40;6.62;;;;;;;13.38;51.95;101063.11;1819586;77;21551;-63
2022/03/01 11:04:47;;;;;;;12.58;8.00;;;;;;;13.68;50.57;101070.95;1788380;77;21054;-78
2022/03/01 11:07:14;;;;;;;11.60;7.37;;;;;;;13.60;49.72;101066.62;1781721;79;21135;-76
2022/03/01 11:09:44;;;;;;;10.40;6.03;;;;;;;13.74;49.18;101067.57;1777998;79;22446;-67
2022/03/01 11:12:12;;;;;;;8.78;5.58;;;;;;;13.59;49.08;101068.09;1782453;79;20982;-64
2022/03/01 11:15:03;;;;;;;9.25;6.15;;;;;;;13.63;48.19;101061.49;1790679;79;21415;-70
2022/03/01 11:17:45;;;;;;;9.83;6.58;;;;;;;13.40;48.35;101066.84;1777752;79;22510;-62
2022/03/01 11:20:15;;;;;;;11.50;6.85;;;;;;;13.33;48.49;101064.16;1778163;79;22222;-78
2022/03/01 11:23:01;;;;;;;10.53;6.33;;;;;;;12.96;48.85;101064.20;1767854;79;21025;-76
2022/03/01 11:25:31;;;;;;;11.33;6.17;;;;;;;12.89;49.20;101062.78;1773128;79;21137;-62
2022/03/01 11:28:09;;;;;;;12.75;6.80;;;;;;;12.77;49.52;101065.02;1743122;80;21012;-70